Time;durP1;ratioP1;P1;durP2;ratioP2;P2;SDS_P1;SDS_P2;PMS_P1;PMS_P2;Temp;Humidity;BMP_temperature;BMP_pressure;BME280_temperature;BME280_humidity;BME280_pressure;Samples;Min_cycle;Max_cycle;Signal;HPM_P1;HPM_P2
2023/10/21 00:02:23;;;;;;;12.30;2.80;;;;;;;21.33;37.80;94388.58;106993;1273;25424;-81
2023/10/21 00:04:52;;;;;;;12.70;2.60;;;;;;;21.36;36.94;94387.27;107040;1272;23912;-79
2023/10/21 00:07:20;;;;;;;18.80;3.00;;;;;;;21.42;37.31;94388.27;107174;1272;22600;-79
2023/10/21 00:09:48;;;;;;;15.70;2.80;;;;;;;21.44;37.10;94390.20;107151;1273;24208;-82
2023/10/21 00:12:16;;;;;;;9.90;2.50;;;;;;;21.37;37.17;94382.67;107206;1272;22521;-78
2023/10/21 00:14:44;;;;;;;11.90;2.40;;;;;;;21.45;36.89;94391.91;106995;1272;24205;-78
2023/10/21 00:17:12;;;;;;;7.50;2.20;;;;;;;21.37;37.81;94391.67;106984;1273;22524;-78
2023/10/21 00:19:40;;;;;;;17.50;3.20;;;;;;;21.12;41.44;94393.79;107077;1257;24333;-79
2023/10/21 00:22:10;;;;;;;11.00;2.50;;;;;;;20.73;41.69;94393.27;106858;1273;22586;-79
2023/10/21 00:24:38;;;;;;;16.60;2.80;;;;;;;20.53;39.76;94400.51;107048;1272;22559;-80
2023/10/21 00:27:06;;;;;;;17.60;2.70;;;;;;;20.54;40.44;94400.11;107041;1272;22527;-79
2023/10/21 00:29:34;;;;;;;12.70;2.50;;;;;;;20.47;40.28;94401.67;106943;1272;24352;-79
2023/10/21 00:32:04;;;;;;;11.90;2.70;;;;;;;20.42;41.91;94405.11;107077;1272;25429;-79
2023/10/21 00:34:38;;;;;;;13.50;3.00;;;;;;;20.21;43.10;94411.31;107181;1272;22514;-80
2023/10/21 00:37:08;;;;;;;11.80;2.70;;;;;;;19.93;46.71;94412.31;107189;1273;25309;-80
2023/10/21 00:39:37;;;;;;;16.50;2.40;;;;;;;19.71;43.17;94405.05;107051;1272;22689;-79
2023/10/21 00:42:06;;;;;;;20.30;3.00;;;;;;;19.77;43.37;94397.83;107001;1273;23909;-80
2023/10/21 00:44:34;;;;;;;13.10;3.20;;;;;;;19.66;45.45;94406.27;106857;1272;25375;-79
2023/10/21 00:47:02;;;;;;;14.80;2.90;;;;;;;19.46;44.90;94397.89;107066;1272;22523;-80
2023/10/21 00:49:31;;;;;;;13.20;3.00;;;;;;;19.32;47.70;94405.74;107014;1273;23887;-79
2023/10/21 00:52:03;;;;;;;9.00;2.70;;;;;;;19.06;47.80;94407.73;106997;1273;25326;-80
2023/10/21 00:54:31;;;;;;;16.90;2.40;;;;;;;19.18;44.41;94406.34;107192;1273;22563;-80
2023/10/21 00:56:59;;;;;;;10.90;2.40;;;;;;;19.20;47.03;94411.38;106977;1273;22522;-80
2023/10/21 00:59:28;;;;;;;19.30;2.50;;;;;;;19.02;48.43;94413.71;106846;1263;22651;-80
2023/10/21 01:01:56;;;;;;;12.90;2.60;;;;;;;18.95;48.71;94412.09;107074;1273;24250;-80
2023/10/21 01:04:25;;;;;;;16.90;3.00;;;;;;;18.77;50.21;94422.20;107128;1273;24221;-79
2023/10/21 01:06:55;;;;;;;14.90;2.90;;;;;;;18.72;48.15;94419.88;107060;1272;24247;-81
2023/10/21 01:09:24;;;;;;;13.60;2.90;;;;;;;18.67;49.04;94425.75;106801;1272;22553;-80
2023/10/21 01:11:52;;;;;;;14.90;2.70;;;;;;;18.66;47.48;94417.45;106976;1273;22517;-79
2023/10/21 01:14:20;;;;;;;9.80;2.90;;;;;;;18.77;47.66;94419.57;107033;1273;22652;-80
2023/10/21 01:16:49;;;;;;;10.10;2.50;;;;;;;18.86;46.20;94425.52;106983;1273;22548;-80
2023/10/21 01:19:17;;;;;;;12.10;3.60;;;;;;;19.00;47.75;94418.88;107094;1273;22527;-80
2023/10/21 01:21:45;;;;;;;13.90;2.70;;;;;;;18.93;47.93;94420.58;107054;1273;22633;-79
2023/10/21 01:24:13;;;;;;;10.70;2.50;;;;;;;18.98;48.68;94426.47;106935;1272;25357;-80
2023/10/21 01:26:42;;;;;;;17.90;3.00;;;;;;;18.89;49.18;94435.83;107001;1273;22825;-78
2023/10/21 01:29:10;;;;;;;14.50;2.70;;;;;;;18.91;48.89;94437.86;106924;1273;22535;-79
2023/10/21 01:31:38;;;;;;;11.80;2.60;;;;;;;18.84;48.64;94436.52;107025;1273;24262;-80
2023/10/21 01:34:07;;;;;;;9.80;3.00;;;;;;;18.96;46.10;94437.30;107025;1272;22514;-80
2023/10/21 01:36:35;;;;;;;12.10;2.80;;;;;;;19.15;47.54;94440.29;107065;1272;24213;-80
2023/10/21 01:39:05;;;;;;;14.80;2.50;;;;;;;18.97;50.47;94450.05;106976;1272;25281;-80
2023/10/21 01:41:33;;;;;;;13.80;3.20;;;;;;;18.78;48.05;94464.53;106992;1273;22520;-81
2023/10/21 01:44:01;;;;;;;12.70;4.20;;;;;;;19.01;44.99;94444.64;107026;1272;22515;-79
2023/10/21 01:46:29;;;;;;;11.40;2.60;;;;;;;19.10;47.93;94456.48;107077;1272;22517;-79
2023/10/21 01:48:57;;;;;;;9.90;2.30;;;;;;;18.91;49.63;94458.83;106954;1272;22553;-80
2023/10/21 01:51:26;;;;;;;15.80;3.10;;;;;;;18.65;51.59;94459.02;106790;1272;22521;-80
2023/10/21 01:53:54;;;;;;;16.60;3.10;;;;;;;18.42;51.42;94465.58;106958;1272;22514;-79
2023/10/21 01:56:22;;;;;;;14.10;2.90;;;;;;;18.38;50.31;94476.89;107055;1273;22532;-81
2023/10/21 01:58:50;;;;;;;11.80;2.70;;;;;;;18.53;47.74;94470.88;106846;1272;24247;-79
2023/10/21 02:01:18;;;;;;;12.80;3.30;;;;;;;18.89;45.84;94471.61;106977;1273;24837;-80
2023/10/21 02:03:47;;;;;;;8.90;2.40;;;;;;;19.09;46.55;94481.85;107186;1273;22592;-81
2023/10/21 02:06:15;;;;;;;12.50;3.00;;;;;;;19.33;45.17;94476.42;107096;1272;25490;-80
2023/10/21 02:08:43;;;;;;;12.60;2.70;;;;;;;19.32;46.45;94471.54;106938;1272;22515;-80
2023/10/21 02:11:11;;;;;;;8.10;2.50;;;;;;;19.14;48.94;94481.52;107117;1272;22519;-80
2023/10/21 02:13:40;;;;;;;13.40;2.60;;;;;;;18.92;49.92;94472.16;106937;1273;24585;-80
2023/10/21 02:16:09;;;;;;;17.80;2.90;;;;;;;18.71;49.84;94472.27;106841;1272;25334;-80
2023/10/21 02:18:37;;;;;;;14.80;3.40;;;;;;;18.61;50.25;94472.98;107047;1272;22527;-79
2023/10/21 02:21:06;;;;;;;11.90;3.10;;;;;;;18.61;48.30;94464.58;106846;1272;24268;-80
2023/10/21 02:23:34;;;;;;;14.20;2.80;;;;;;;18.98;46.20;94472.24;106988;1273;22999;-79
2023/10/21 02:26:04;;;;;;;14.60;3.00;;;;;;;19.41;44.97;94461.63;107067;1272;22533;-79
2023/10/21 02:28:32;;;;;;;14.70;3.90;;;;;;;19.60;46.09;94467.76;106987;1273;26531;-82
2023/10/21 02:31:05;;;;;;;16.30;2.80;;;;;;;19.59;46.19;94471.70;107079;1273;23236;-82
2023/10/21 02:33:33;;;;;;;10.90;2.60;;;;;;;19.70;44.17;94463.64;107085;1273;24256;-79
2023/10/21 02:36:02;;;;;;;16.90;3.40;;;;;;;19.98;42.72;94465.55;107039;1273;25440;-79
2023/10/21 02:38:30;;;;;;;17.40;2.80;;;;;;;20.15;44.23;94482.00;107088;1273;22519;-80
2023/10/21 02:40:59;;;;;;;14.80;2.80;;;;;;;19.99;43.87;94463.84;107180;1272;22554;-80
2023/10/21 02:43:27;;;;;;;17.40;3.40;;;;;;;20.23;41.55;94478.48;106836;1272;25418;-79
2023/10/21 02:45:55;;;;;;;11.50;2.90;;;;;;;20.65;40.76;94480.18;107142;1272;25357;-81
2023/10/21 02:48:23;;;;;;;13.60;2.80;;;;;;;20.92;40.03;94481.88;106982;1272;24643;-80
2023/10/21 02:50:53;;;;;;;13.80;2.50;;;;;;;21.01;40.29;94484.46;107300;1273;25488;-81
2023/10/21 02:53:21;;;;;;;14.20;2.80;;;;;;;21.02;40.49;94488.45;107263;1273;24225;-82
2023/10/21 02:55:49;;;;;;;10.70;2.70;;;;;;;20.90;41.36;94495.95;107080;1272;22527;-80
2023/10/21 02:58:18;;;;;;;11.30;2.80;;;;;;;20.69;41.92;94501.11;106805;1273;24403;-80
2023/10/21 03:00:47;;;;;;;14.50;2.90;;;;;;;20.70;40.92;94495.93;107077;1272;23272;-81
2023/10/21 03:03:16;;;;;;;9.90;2.30;;;;;;;20.86;40.79;94490.95;107018;1273;22563;-82
2023/10/21 03:05:44;;;;;;;13.10;2.50;;;;;;;21.02;39.95;94503.45;107169;1273;25418;-80
2023/10/21 03:08:12;;;;;;;17.20;3.00;;;;;;;21.24;39.47;94503.23;107118;1272;22631;-81
2023/10/21 03:10:40;;;;;;;15.10;2.70;;;;;;;21.25;39.52;94503.30;107122;1273;24983;-82
2023/10/21 03:13:08;;;;;;;19.00;3.70;;;;;;;21.31;39.27;94516.77;107067;1273;22536;-81
2023/10/21 03:15:36;;;;;;;11.80;3.10;;;;;;;21.33;39.58;94509.44;106995;1273;25482;-81
2023/10/21 03:18:05;;;;;;;18.80;3.10;;;;;;;21.30;39.75;94506.86;107075;1272;23007;-80
2023/10/21 03:20:33;;;;;;;14.70;3.00;;;;;;;21.28;39.69;94505.60;107019;1272;24196;-81
2023/10/21 03:23:03;;;;;;;9.50;2.80;;;;;;;21.36;39.60;94505.48;107041;1273;22642;-80
2023/10/21 03:25:33;;;;;;;17.50;3.40;;;;;;;21.34;39.93;94507.40;107080;1272;25432;-81
2023/10/21 03:28:01;;;;;;;16.10;3.00;;;;;;;21.31;39.60;94503.38;107057;1273;22517;-81
2023/10/21 03:30:30;;;;;;;10.00;2.80;;;;;;;21.28;39.81;94506.27;106797;1273;23131;-80
2023/10/21 03:32:58;;;;;;;17.20;3.60;;;;;;;21.25;40.09;94508.31;107073;1273;25492;-80
2023/10/21 03:35:26;;;;;;;15.50;2.40;;;;;;;21.23;39.93;94513.29;107194;1272;24343;-81
2023/10/21 03:37:55;;;;;;;11.50;3.00;;;;;;;21.24;40.22;94504.48;106980;1272;24393;-81
2023/10/21 03:40:23;;;;;;;17.20;3.20;;;;;;;21.32;39.83;94508.29;106908;1273;24656;-81
2023/10/21 03:42:51;;;;;;;13.70;3.20;;;;;;;21.32;40.54;94509.73;106944;1272;22621;-81
2023/10/21 03:45:19;;;;;;;13.90;3.10;;;;;;;21.13;41.56;94504.94;107009;1272;25385;-81
2023/10/21 03:47:48;;;;;;;14.10;2.70;;;;;;;20.80;43.72;94516.95;106964;1273;22520;-81
2023/10/21 03:50:17;;;;;;;17.60;2.70;;;;;;;20.43;44.76;94506.64;107167;1273;22531;-80
2023/10/21 03:52:45;;;;;;;11.60;3.10;;;;;;;20.09;46.15;94498.48;106883;1272;22527;-81
2023/10/21 03:55:13;;;;;;;12.90;2.60;;;;;;;19.74;46.86;94508.63;106962;1272;24578;-82
2023/10/21 03:57:42;;;;;;;16.10;3.20;;;;;;;19.71;44.87;94514.27;106954;1273;22530;-81
2023/10/21 04:00:12;;;;;;;12.00;3.10;;;;;;;19.93;44.31;94508.69;106972;1273;24247;-81
2023/10/21 04:02:40;;;;;;;13.80;3.20;;;;;;;20.03;44.93;94516.58;107020;1263;25409;-81
2023/10/21 04:05:08;;;;;;;11.60;2.20;;;;;;;19.82;47.23;94515.75;106843;1273;24196;-80
2023/10/21 04:07:36;;;;;;;18.50;4.00;;;;;;;19.93;43.61;94508.90;107017;1272;25059;-82
2023/10/21 04:10:05;;;;;;;16.10;3.10;;;;;;;20.16;43.42;94507.23;107023;1273;22777;-82
2023/10/21 04:12:33;;;;;;;17.80;2.60;;;;;;;20.26;42.89;94509.70;107047;1272;22520;-81
2023/10/21 04:15:01;;;;;;;12.60;3.10;;;;;;;20.36;43.18;94503.97;107056;1273;22570;-81
2023/10/21 04:17:30;;;;;;;16.80;3.70;;;;;;;20.41;43.14;94512.34;107210;1272;24108;-83
2023/10/21 04:19:59;;;;;;;14.80;3.10;;;;;;;20.49;42.93;94516.06;107150;1272;24626;-80
2023/10/21 04:22:27;;;;;;;10.80;3.30;;;;;;;20.68;42.33;94511.83;107005;1273;24053;-81
2023/10/21 04:24:55;;;;;;;13.00;2.80;;;;;;;20.80;41.73;94513.55;107114;1273;24314;-79
2023/10/21 04:27:23;;;;;;;14.40;2.60;;;;;;;21.01;41.59;94517.36;106992;1273;25346;-82
2023/10/21 04:29:52;;;;;;;14.50;3.10;;;;;;;21.14;40.94;94515.96;106969;1273;22550;-79
2023/10/21 04:32:20;;;;;;;17.40;3.00;;;;;;;21.21;40.92;94509.89;107186;1272;22627;-80
2023/10/21 04:34:48;;;;;;;14.40;2.80;;;;;;;21.20;41.31;94512.27;106933;1273;22514;-80
2023/10/21 04:37:16;;;;;;;19.70;2.80;;;;;;;21.21;41.30;94515.27;107226;1273;25331;-81
2023/10/21 04:39:44;;;;;;;13.50;2.70;;;;;;;21.19;41.46;94509.69;107046;1273;23126;-82
2023/10/21 04:42:13;;;;;;;16.60;3.00;;;;;;;21.12;41.76;94512.20;106979;1273;22516;-82
2023/10/21 04:44:43;;;;;;;11.80;3.30;;;;;;;21.05;42.35;94517.92;107079;1273;22524;-80
2023/10/21 04:47:12;;;;;;;14.20;2.50;;;;;;;20.86;43.60;94517.58;106990;1272;24461;-80
2023/10/21 04:49:42;;;;;;;10.40;3.70;;;;;;;20.55;45.36;94522.37;106877;1272;24737;-81
2023/10/21 04:52:12;;;;;;;19.90;3.00;;;;;;;20.22;45.67;94523.71;106983;1273;22517;-81
2023/10/21 04:54:44;;;;;;;13.40;2.80;;;;;;;20.06;45.50;94532.77;106934;1250;22531;-81
2023/10/21 04:57:12;;;;;;;13.70;2.80;;;;;;;20.04;46.07;94529.55;106795;1273;22524;-81
2023/10/21 04:59:40;;;;;;;12.00;3.10;;;;;;;19.99;45.60;94543.10;107234;1273;25481;-82
2023/10/21 05:02:08;;;;;;;16.80;3.30;;;;;;;20.22;44.89;94537.81;106976;1273;22665;-82
2023/10/21 05:04:36;;;;;;;12.80;2.60;;;;;;;20.25;44.83;94543.70;106993;1262;22512;-80
2023/10/21 05:07:05;;;;;;;12.80;3.10;;;;;;;20.52;43.37;94542.39;107002;1273;25348;-82
2023/10/21 05:09:33;;;;;;;13.00;3.00;;;;;;;20.80;43.29;94546.95;106848;1273;24254;-81
2023/10/21 05:12:01;;;;;;;17.80;3.50;;;;;;;20.81;44.00;94555.16;106949;1273;22603;-81
2023/10/21 05:14:31;;;;;;;12.80;2.80;;;;;;;20.63;44.65;94555.92;107030;1273;22781;-81
2023/10/21 05:16:59;;;;;;;12.90;3.00;;;;;;;20.38;46.66;94557.58;107059;1270;22529;-81
2023/10/21 05:19:27;;;;;;;12.80;2.60;;;;;;;20.34;45.91;94562.55;107188;1272;24266;-82
2023/10/21 05:21:55;;;;;;;15.50;2.70;;;;;;;20.46;44.90;94563.40;107026;1273;22642;-80
2023/10/21 05:24:23;;;;;;;12.70;2.60;;;;;;;20.60;44.48;94554.52;107058;1273;22617;-80
2023/10/21 05:26:51;;;;;;;17.10;3.00;;;;;;;20.69;44.56;94572.84;107143;1273;22530;-80
2023/10/21 05:29:20;;;;;;;12.20;2.80;;;;;;;20.82;44.61;94574.34;107053;1273;22679;-80
2023/10/21 05:31:49;;;;;;;15.30;3.00;;;;;;;20.79;45.79;94580.09;107182;1273;22635;-81
2023/10/21 05:34:20;;;;;;;9.10;2.60;;;;;;;20.82;44.82;94583.13;107173;1272;24392;-81
2023/10/21 05:36:49;;;;;;;15.30;3.20;;;;;;;21.14;43.50;94579.84;107099;1272;22990;-82
2023/10/21 05:39:17;;;;;;;13.30;3.00;;;;;;;21.27;43.54;94590.80;107048;1272;24364;-82
2023/10/21 05:41:45;;;;;;;14.70;2.80;;;;;;;21.40;43.18;94591.94;107125;1272;24276;-83
2023/10/21 05:44:13;;;;;;;12.50;2.50;;;;;;;21.52;42.90;94595.66;106970;1272;22566;-82
2023/10/21 05:46:41;;;;;;;11.70;2.80;;;;;;;21.65;42.80;94611.66;107049;1272;22513;-82
2023/10/21 05:49:09;;;;;;;8.40;2.50;;;;;;;21.88;42.08;94614.69;107160;1273;22712;-81
2023/10/21 05:51:37;;;;;;;18.70;3.20;;;;;;;21.97;42.31;94618.85;107142;1273;22518;-81
2023/10/21 05:54:05;;;;;;;17.20;3.20;;;;;;;22.02;42.27;94626.30;107102;1273;24423;-81
2023/10/21 05:56:34;;;;;;;22.50;3.20;;;;;;;22.06;42.18;94622.56;106995;1273;24244;-83
2023/10/21 05:59:04;;;;;;;15.80;3.10;;;;;;;22.17;42.22;94624.09;106849;1273;22577;-82
2023/10/21 06:01:32;;;;;;;15.00;2.80;;;;;;;22.24;41.83;94624.60;107103;1273;22614;-81
2023/10/21 06:04:00;;;;;;;17.50;3.20;;;;;;;22.41;41.29;94626.08;106990;1272;24230;-81
2023/10/21 06:06:28;;;;;;;14.40;2.80;;;;;;;22.47;41.35;94617.18;107009;1273;23874;-81
2023/10/21 06:08:57;;;;;;;14.50;3.20;;;;;;;22.52;41.57;94621.86;107134;1273;25404;-82
2023/10/21 06:11:25;;;;;;;40.00;13.70;;;;;;;22.53;41.42;94625.00;107079;1273;22526;-82
2023/10/21 06:13:53;;;;;;;64.40;28.40;;;;;;;22.55;41.54;94620.53;107061;1273;24215;-82
2023/10/21 06:16:21;;;;;;;12.10;4.00;;;;;;;22.56;41.58;94623.27;107032;1273;22518;-81
2023/10/21 06:18:49;;;;;;;19.10;8.50;;;;;;;22.60;41.53;94624.08;106974;1273;22535;-83
2023/10/21 06:21:17;;;;;;;84.20;65.40;;;;;;;22.60;41.62;94622.95;107020;1273;22678;-82
2023/10/21 06:23:46;;;;;;;22.80;10.80;;;;;;;22.62;41.77;94620.50;107102;1272;22716;-80
2023/10/21 06:26:16;;;;;;;11.70;4.40;;;;;;;22.66;41.69;94612.94;106990;1273;22568;-82
2023/10/21 06:28:45;;;;;;;17.40;5.50;;;;;;;22.76;41.13;94630.79;107106;1273;24215;-82
2023/10/21 06:31:13;;;;;;;20.80;5.30;;;;;;;22.86;40.45;94634.25;107112;1272;25439;-82
2023/10/21 06:33:41;;;;;;;18.20;5.00;;;;;;;23.05;39.87;94625.77;107002;1273;22661;-81
2023/10/21 06:36:09;;;;;;;11.90;3.20;;;;;;;23.10;40.10;94638.56;107030;1273;22539;-81
2023/10/21 06:38:37;;;;;;;22.30;3.20;;;;;;;23.12;39.82;94639.89;107026;1273;25291;-83
2023/10/21 06:41:05;;;;;;;10.00;2.60;;;;;;;23.19;39.63;94638.56;107128;1273;24261;-82
2023/10/21 06:43:42;;;;;;;10.90;4.30;;;;;;;23.26;39.72;94638.20;107169;1273;24202;-81
2023/10/21 06:46:10;;;;;;;12.20;3.60;;;;;;;23.34;39.54;94639.33;107021;1273;22521;-82
2023/10/21 06:48:38;;;;;;;10.90;2.70;;;;;;;23.45;39.74;94637.83;107001;1273;22521;-81
2023/10/21 06:51:07;;;;;;;15.20;3.20;;;;;;;23.50;39.76;94632.20;107037;1273;26537;-82
2023/10/21 06:53:35;;;;;;;13.70;2.90;;;;;;;23.54;39.93;94638.50;106877;1273;22671;-82
2023/10/21 06:56:10;;;;;;;13.30;3.00;;;;;;;23.60;39.63;94640.90;107081;1273;24357;-82
2023/10/21 06:58:43;;;;;;;16.00;2.70;;;;;;;23.68;39.73;94652.20;107124;1273;26524;-82
2023/10/21 07:01:12;;;;;;;15.70;3.00;;;;;;;23.78;39.12;94649.76;107166;1273;22511;-82
2023/10/21 07:03:40;;;;;;;13.80;3.00;;;;;;;23.84;39.04;94651.92;107178;1273;22517;-83
2023/10/21 07:06:08;;;;;;;15.60;3.30;;;;;;;23.89;38.87;94660.54;107095;1263;22525;-81
2023/10/21 07:08:36;;;;;;;15.50;3.20;;;;;;;23.92;39.33;94662.20;107168;1273;23887;-81
2023/10/21 07:11:05;;;;;;;10.70;2.60;;;;;;;23.96;38.57;94672.81;107100;1273;22527;-81
2023/10/21 07:13:33;;;;;;;17.20;3.00;;;;;;;24.00;38.67;94663.34;107070;1273;24341;-80
2023/10/21 07:16:07;;;;;;;15.50;2.60;;;;;;;24.04;38.52;94675.00;106988;1273;25282;-79
2023/10/21 07:18:39;;;;;;;17.20;2.80;;;;;;;24.09;38.52;94675.67;107105;1273;25801;-82
2023/10/21 07:21:09;;;;;;;16.90;2.80;;;;;;;24.17;38.71;94673.92;107258;1273;22732;-80
2023/10/21 07:23:37;;;;;;;19.10;3.40;;;;;;;24.33;38.61;94675.48;107117;1266;22549;-81
2023/10/21 07:26:05;;;;;;;15.80;3.10;;;;;;;24.53;37.91;94669.83;106956;1257;22527;-82
2023/10/21 07:28:33;;;;;;;22.80;8.50;;;;;;;24.77;38.74;94675.79;107030;1273;22525;-80
2023/10/21 07:31:02;;;;;;;12.70;3.40;;;;;;;24.98;38.23;94687.23;107058;1273;26714;-79
2023/10/21 07:33:30;;;;;;;17.50;4.00;;;;;;;25.03;37.46;94683.55;106758;1273;22524;-78
2023/10/21 07:35:59;;;;;;;11.80;3.10;;;;;;;25.03;37.27;94681.77;107137;1273;22517;-78
2023/10/21 07:38:27;;;;;;;13.30;2.80;;;;;;;25.07;36.74;94680.15;107115;1273;25530;-80
2023/10/21 07:40:56;;;;;;;12.60;3.30;;;;;;;25.21;37.30;94671.48;107039;1273;22543;-80
2023/10/21 07:43:24;;;;;;;18.30;4.00;;;;;;;25.44;37.64;94682.23;106818;1273;25366;-82
2023/10/21 07:45:52;;;;;;;19.90;3.70;;;;;;;25.61;37.30;94679.53;106947;1272;22894;-81
2023/10/21 07:48:20;;;;;;;23.30;4.10;;;;;;;25.72;36.70;94682.55;106998;1273;22517;-81
2023/10/21 07:50:53;;;;;;;15.80;3.90;;;;;;;25.85;36.52;94695.15;106958;1273;22793;-82
2023/10/21 07:53:22;;;;;;;16.20;4.70;;;;;;;25.89;35.72;94689.59;106998;1273;25512;-79
2023/10/21 07:55:50;;;;;;;8.40;2.20;;;;;;;25.81;36.15;94696.22;107080;1273;22597;-82
2023/10/21 07:58:19;;;;;;;13.90;2.80;;;;;;;25.61;35.89;94705.63;106807;1273;25369;-82
2023/10/21 08:00:47;;;;;;;11.20;2.60;;;;;;;25.48;36.54;94710.09;106794;1273;22527;-80
2023/10/21 08:03:15;;;;;;;13.90;2.60;;;;;;;25.29;36.13;94719.75;106990;1273;24228;-81
2023/10/21 08:05:43;;;;;;;13.30;3.10;;;;;;;25.18;36.77;94711.44;106936;1273;25264;-83
2023/10/21 08:08:13;;;;;;;16.50;5.20;;;;;;;25.17;37.25;94723.75;107051;1273;24250;-82
2023/10/21 08:10:41;;;;;;;12.30;3.20;;;;;;;25.20;37.57;94732.24;107087;1273;22521;-81
2023/10/21 08:13:09;;;;;;;11.70;2.70;;;;;;;25.15;37.02;94734.48;106969;1273;25507;-82
2023/10/21 08:15:38;;;;;;;15.00;2.80;;;;;;;25.10;36.99;94744.30;107211;1273;22530;-83
2023/10/21 08:18:07;;;;;;;14.30;2.50;;;;;;;25.04;37.03;94755.64;107104;1273;25441;-80
2023/10/21 08:20:37;;;;;;;14.20;2.40;;;;;;;24.99;37.28;94750.11;107088;1273;24196;-81
2023/10/21 08:23:07;;;;;;;17.10;2.90;;;;;;;25.03;37.47;94752.65;107165;1273;25366;-82
2023/10/21 08:25:36;;;;;;;18.80;3.50;;;;;;;25.04;36.83;94744.09;107064;1273;24043;-82
2023/10/21 08:28:04;;;;;;;14.60;3.40;;;;;;;25.04;37.08;94746.80;107021;1273;22624;-81
2023/10/21 08:30:33;;;;;;;14.70;4.00;;;;;;;25.03;37.65;94763.42;107154;1273;22508;-80
2023/10/21 08:33:02;;;;;;;16.10;3.40;;;;;;;25.02;37.20;94771.65;107049;1273;24485;-81
2023/10/21 08:35:34;;;;;;;14.30;2.90;;;;;;;24.98;36.92;94781.50;107005;1273;22641;-82
2023/10/21 08:38:02;;;;;;;14.40;2.90;;;;;;;25.03;36.78;94782.34;107017;1273;25246;-80
2023/10/21 08:40:30;;;;;;;16.70;2.80;;;;;;;25.04;36.14;94789.44;106838;1273;25415;-81
2023/10/21 08:43:00;;;;;;;14.00;2.60;;;;;;;24.98;36.04;94784.44;107156;1273;22551;-81
2023/10/21 08:45:32;;;;;;;15.10;2.90;;;;;;;24.91;36.33;94792.57;107126;1273;24231;-84
2023/10/21 08:48:01;;;;;;;16.80;3.10;;;;;;;24.90;36.72;94791.06;107021;1273;22622;-80
2023/10/21 08:50:35;;;;;;;8.70;2.40;;;;;;;24.88;36.37;94789.57;107055;1273;22517;-80
2023/10/21 08:53:06;;;;;;;14.80;2.90;;;;;;;24.83;36.61;94781.77;107091;1273;22564;-80
2023/10/21 08:55:35;;;;;;;15.60;3.20;;;;;;;24.80;37.10;94789.77;107142;1273;22773;-80
2023/10/21 08:58:06;;;;;;;18.60;2.80;;;;;;;24.81;37.08;94806.22;106828;1273;25424;-80
2023/10/21 09:00:34;;;;;;;17.10;3.20;;;;;;;24.79;36.80;94801.88;106950;1273;22527;-80
2023/10/21 09:03:03;;;;;;;11.80;2.90;;;;;;;24.77;36.88;94805.83;106948;1272;24506;-80
2023/10/21 09:05:34;;;;;;;15.90;2.80;;;;;;;24.76;37.00;94814.77;107086;1273;22549;-79
2023/10/21 09:08:03;;;;;;;12.80;3.00;;;;;;;24.71;36.91;94810.02;107007;1272;22644;-79
2023/10/21 09:10:32;;;;;;;16.20;3.20;;;;;;;24.72;37.31;94812.60;106921;1273;25242;-79
2023/10/21 09:13:13;;;;;;;18.20;3.30;;;;;;;24.77;37.19;94808.55;107010;1273;22614;-80
2023/10/21 09:15:42;;;;;;;22.90;8.50;;;;;;;24.77;36.97;94806.55;106895;1273;390193;-81
2023/10/21 09:18:10;;;;;;;13.80;3.50;;;;;;;24.72;36.79;94817.81;106880;1273;23453;-82
2023/10/21 09:20:39;;;;;;;16.20;3.60;;;;;;;24.66;36.81;94818.53;107038;1273;22669;-80
2023/10/21 09:23:08;;;;;;;13.90;3.80;;;;;;;24.67;37.17;94813.60;107001;1273;22531;-81
2023/10/21 09:25:37;;;;;;;19.70;7.10;;;;;;;24.71;37.28;94812.52;107063;1273;25340;-83
2023/10/21 09:28:05;;;;;;;18.10;3.80;;;;;;;24.78;37.34;94811.70;106996;1273;25346;-82
2023/10/21 09:30:33;;;;;;;17.70;4.00;;;;;;;24.95;37.35;94810.59;106997;1273;25642;-81
2023/10/21 09:33:04;;;;;;;19.00;3.50;;;;;;;25.21;36.77;94826.13;107002;1273;22595;-81
2023/10/21 09:35:36;;;;;;;13.50;3.20;;;;;;;25.50;36.95;94821.20;106877;1273;25396;-80
2023/10/21 09:38:17;;;;;;;17.40;3.10;;;;;;;25.74;35.82;94828.05;106849;1273;24305;-81
2023/10/21 09:40:45;;;;;;;16.20;3.40;;;;;;;25.87;35.35;94825.98;107084;1263;22529;-80
2023/10/21 09:43:13;;;;;;;22.00;3.40;;;;;;;26.00;35.16;94818.33;106977;1273;22539;-81
2023/10/21 09:45:43;;;;;;;17.10;3.70;;;;;;;26.23;35.62;94817.09;106965;1273;23107;-81
2023/10/21 09:48:12;;;;;;;18.80;7.70;;;;;;;26.46;34.93;94820.85;107105;1273;24582;-81
2023/10/21 09:50:53;;;;;;;16.30;4.30;;;;;;;26.60;34.73;94820.35;107045;1267;26537;-79
2023/10/21 09:53:34;;;;;;;14.40;3.90;;;;;;;26.77;35.22;94819.57;107038;1273;25421;-81
2023/10/21 09:56:02;;;;;;;18.40;4.00;;;;;;;26.79;33.46;94811.79;107001;1273;22550;-80
2023/10/21 09:58:31;;;;;;;16.40;3.40;;;;;;;26.71;33.93;94808.48;107025;1273;25246;-81
2023/10/21 10:01:02;;;;;;;16.60;3.20;;;;;;;26.77;34.70;94805.89;107012;1273;22646;-79
2023/10/21 10:03:34;;;;;;;14.30;4.10;;;;;;;26.75;33.87;94809.51;107018;1257;22524;-81
2023/10/21 10:06:04;;;;;;;18.30;3.50;;;;;;;26.77;34.05;94806.46;107003;1273;22547;-82
2023/10/21 10:08:34;;;;;;;13.90;3.60;;;;;;;26.73;33.86;94805.67;106781;1273;22631;-81
2023/10/21 10:11:10;;;;;;;20.20;3.80;;;;;;;26.78;33.83;94801.85;106871;1273;22522;-81
2023/10/21 10:13:46;;;;;;;24.10;4.50;;;;;;;26.97;33.97;94810.80;107054;1273;22643;-80
2023/10/21 10:16:25;;;;;;;17.40;3.30;;;;;;;27.25;33.41;94813.80;107095;1273;25619;-82
2023/10/21 10:18:56;;;;;;;16.80;3.70;;;;;;;27.32;32.83;94804.92;107017;1273;24216;-82
2023/10/21 10:21:27;;;;;;;16.00;3.60;;;;;;;27.33;32.82;94808.12;107041;1273;22604;-81
2023/10/21 10:24:03;;;;;;;23.20;3.30;;;;;;;27.45;32.76;94802.38;107010;1263;22527;-81
2023/10/21 10:26:36;;;;;;;11.00;3.20;;;;;;;27.66;32.76;94802.91;107082;1273;23870;-81
2023/10/21 10:29:25;;;;;;;18.80;4.20;;;;;;;27.90;32.24;94805.25;107164;1273;22654;-81
2023/10/21 10:32:16;;;;;;;22.70;3.70;;;;;;;27.96;32.15;94810.73;107064;1273;22640;-81
2023/10/21 10:34:53;;;;;;;16.80;3.40;;;;;;;28.02;32.38;94809.45;107027;1273;25087;-80
2023/10/21 10:37:34;;;;;;;19.10;4.20;;;;;;;28.15;32.48;94816.80;107318;1273;22523;-81
2023/10/21 10:40:18;;;;;;;18.00;3.40;;;;;;;28.14;31.99;94814.92;107076;1257;22520;-82
2023/10/21 10:42:46;;;;;;;19.50;3.90;;;;;;;28.19;32.91;94814.83;107252;1273;24222;-82
2023/10/21 10:45:14;;;;;;;20.80;4.20;;;;;;;28.30;32.05;94808.59;106861;1273;24399;-82
2023/10/21 10:47:43;;;;;;;31.30;12.80;;;;;;;28.50;31.98;94810.98;106697;1273;26678;-82
2023/10/21 10:50:19;;;;;;;18.40;4.60;;;;;;;28.59;32.26;94815.64;107020;1273;25312;-82
2023/10/21 10:52:47;;;;;;;16.40;3.70;;;;;;;28.57;31.93;94822.55;107076;1272;22524;-82
2023/10/21 10:55:15;;;;;;;19.90;4.10;;;;;;;28.43;32.68;94817.23;106987;1273;24282;-82
2023/10/21 10:57:44;;;;;;;17.80;4.10;;;;;;;28.38;33.38;94825.54;107035;1273;24217;-81
2023/10/21 11:00:20;;;;;;;19.70;4.00;;;;;;;28.39;33.33;94823.60;107003;1264;25706;-82
2023/10/21 11:02:49;;;;;;;16.80;3.70;;;;;;;28.54;33.22;94815.95;106991;1273;22510;-82
2023/10/21 11:05:21;;;;;;;20.60;4.60;;;;;;;28.60;32.89;94813.86;107062;1263;25423;-82
2023/10/21 11:07:52;;;;;;;19.40;3.70;;;;;;;28.74;32.56;94815.69;107028;1273;24095;-83
2023/10/21 11:10:22;;;;;;;14.20;3.80;;;;;;;29.05;32.49;94816.02;107093;1273;22655;-82
2023/10/21 11:12:52;;;;;;;18.30;3.50;;;;;;;29.26;31.34;94815.54;106989;1273;22615;-82
2023/10/21 11:15:21;;;;;;;15.60;3.40;;;;;;;29.15;31.04;94815.98;107037;1260;24221;-81
2023/10/21 11:17:52;;;;;;;17.90;3.70;;;;;;;29.05;32.26;94814.70;107055;1272;22921;-82
2023/10/21 11:20:21;;;;;;;17.90;3.60;;;;;;;29.17;32.55;94815.62;106972;1273;22648;-82
2023/10/21 11:22:49;;;;;;;19.40;3.80;;;;;;;29.41;32.24;94818.31;107031;1273;22524;-83
2023/10/21 11:25:17;;;;;;;19.10;4.10;;;;;;;29.66;32.63;94814.44;107029;1273;22778;-81
2023/10/21 11:27:48;;;;;;;19.20;3.60;;;;;;;29.81;30.42;94816.08;106967;1273;25514;-83